createdAt,value
2019-05-16T00:00:29.027Z,15.50
2019-05-16T00:02:58.979Z,15.60
2019-05-16T00:05:27.908Z,15.40
2019-05-16T00:07:54.879Z,15.40
2019-05-16T00:10:21.731Z,15.20
2019-05-16T00:12:49.163Z,15.20
2019-05-16T00:15:18.016Z,15.20
2019-05-16T00:17:44.719Z,15.20
2019-05-16T00:20:12.262Z,15.00
2019-05-16T00:22:39.491Z,15.10
2019-05-16T00:25:08.692Z,14.80
2019-05-16T00:27:35.902Z,14.70
2019-05-16T00:30:04.090Z,14.70
2019-05-16T00:32:31.329Z,14.50
2019-05-16T00:34:58.427Z,14.30
2019-05-16T00:37:25.378Z,14.50
2019-05-16T00:39:52.986Z,14.70
2019-05-16T00:42:19.868Z,14.70
2019-05-16T00:44:47.863Z,14.80
2019-05-16T00:47:17.450Z,14.90
2019-05-16T00:49:43.716Z,14.80
2019-05-16T00:52:10.575Z,15.10
2019-05-16T00:54:38.434Z,15.10
2019-05-16T00:57:08.334Z,14.70
2019-05-16T00:59:35.600Z,14.80
2019-05-16T01:02:02.341Z,14.70
2019-05-16T01:04:29.194Z,14.70
2019-05-16T01:06:55.979Z,14.60
2019-05-16T01:09:22.948Z,14.60
2019-05-16T01:11:49.725Z,14.50
2019-05-16T01:14:17.713Z,14.10
2019-05-16T01:16:48.784Z,13.90
2019-05-16T01:19:15.583Z,14.00
2019-05-16T01:21:42.189Z,13.90
2019-05-16T01:24:08.676Z,13.60
2019-05-16T01:26:35.412Z,13.40
2019-05-16T01:29:04.783Z,13.40
2019-05-16T01:31:32.867Z,13.40
2019-05-16T01:33:59.468Z,13.40
2019-05-16T01:36:36.029Z,13.40
2019-05-16T01:38:54.427Z,13.40
2019-05-16T01:41:21.036Z,13.30
2019-05-16T01:43:48.313Z,13.40
2019-05-16T01:46:17.968Z,13.60
2019-05-16T01:48:43.777Z,13.70
2019-05-16T01:51:10.941Z,13.70
2019-05-16T01:53:39.461Z,13.90
2019-05-16T01:56:08.432Z,14.20
2019-05-16T01:58:50.738Z,13.90
2019-05-16T02:01:19.058Z,13.60
2019-05-16T02:03:48.137Z,14.10
2019-05-16T02:06:15.136Z,14.20
2019-05-16T02:08:41.802Z,14.10
2019-05-16T02:11:08.643Z,13.80
2019-05-16T02:13:35.842Z,13.50
2019-05-16T02:16:02.713Z,13.60
2019-05-16T02:18:29.178Z,13.80
2019-05-16T02:20:58.668Z,13.80
2019-05-16T02:23:27.706Z,13.80
2019-05-16T02:25:54.292Z,13.70
2019-05-16T02:28:24.618Z,13.50
2019-05-16T02:30:51.531Z,13.50
2019-05-16T02:33:21.346Z,13.60
2019-05-16T02:35:47.034Z,13.30
2019-05-16T02:38:15.851Z,13.20
2019-05-16T02:40:42.330Z,13.00
2019-05-16T02:43:12.211Z,13.10
2019-05-16T02:45:41.184Z,13.10
2019-05-16T02:48:06.487Z,13.10
2019-05-16T02:50:33.328Z,13.20
2019-05-16T02:53:01.464Z,13.00
2019-05-16T02:55:30.792Z,13.00
2019-05-16T02:58:00.399Z,12.80
2019-05-16T03:00:35.609Z,12.80
2019-05-16T03:03:03.938Z,12.70
2019-05-16T03:05:31.522Z,12.80
2019-05-16T03:08:01.276Z,12.80
2019-05-16T03:10:27.358Z,12.90
2019-05-16T03:12:56.076Z,12.90
2019-05-16T03:15:23.006Z,12.80
2019-05-16T03:17:53.392Z,12.70
2019-05-16T03:20:21.496Z,12.70
2019-05-16T03:22:51.985Z,12.80
2019-05-16T03:25:17.920Z,12.60
2019-05-16T03:27:44.549Z,12.60
2019-05-16T03:30:15.305Z,12.40
2019-05-16T03:32:45.306Z,12.40
2019-05-16T03:35:14.436Z,12.60
2019-05-16T03:37:51.439Z,12.40
2019-05-16T03:40:05.493Z,12.40
2019-05-16T03:42:32.006Z,12.40
2019-05-16T03:45:01.583Z,12.40
2019-05-16T03:47:31.044Z,12.70
2019-05-16T03:49:56.096Z,12.90
2019-05-16T03:52:22.850Z,13.00
2019-05-16T03:54:50.695Z,12.90
2019-05-16T03:57:20.874Z,12.70
2019-05-16T03:59:45.634Z,12.50
2019-05-16T04:02:13.424Z,12.60
2019-05-16T04:04:41.696Z,12.40
2019-05-16T04:07:11.010Z,12.10
2019-05-16T04:09:40.884Z,12.30
2019-05-16T04:12:06.498Z,12.50
2019-05-16T04:14:33.272Z,12.60
2019-05-16T04:17:01.334Z,12.80
2019-05-16T04:19:31.195Z,13.00
2019-05-16T04:21:57.036Z,12.90
2019-05-16T04:24:24.210Z,12.90
2019-05-16T04:26:51.868Z,12.70
2019-05-16T04:29:20.736Z,12.80
2019-05-16T04:31:50.685Z,12.60
2019-05-16T04:34:15.530Z,12.60
2019-05-16T04:36:42.074Z,12.10
2019-05-16T04:39:11.871Z,12.30
2019-05-16T04:41:37.070Z,12.40
2019-05-16T04:44:04.815Z,12.30
2019-05-16T04:46:31.659Z,12.30
2019-05-16T04:49:01.456Z,12.20
2019-05-16T04:51:30.657Z,12.20
2019-05-16T04:53:56.825Z,11.80
2019-05-16T04:56:23.462Z,11.60
2019-05-16T04:58:51.361Z,11.80
2019-05-16T05:01:21.180Z,11.80
2019-05-16T05:04:02.139Z,11.90
2019-05-16T05:06:15.110Z,12.00
2019-05-16T05:08:54.464Z,11.90
2019-05-16T05:11:10.905Z,11.90
2019-05-16T05:13:41.333Z,11.80
2019-05-16T05:16:10.442Z,11.90
2019-05-16T05:18:36.403Z,11.90
2019-05-16T05:21:03.412Z,11.90
2019-05-16T05:23:30.241Z,12.10
2019-05-16T05:25:57.095Z,11.80
2019-05-16T05:28:23.618Z,11.80
2019-05-16T05:30:50.575Z,11.90
2019-05-16T05:33:17.843Z,12.00
2019-05-16T05:35:44.356Z,12.10
2019-05-16T05:38:11.030Z,12.10
2019-05-16T05:40:37.521Z,12.10
2019-05-16T05:43:03.926Z,12.30
2019-05-16T05:45:30.898Z,12.10
2019-05-16T05:48:00.027Z,12.20
2019-05-16T05:50:26.534Z,12.40
2019-05-16T05:52:53.040Z,12.40
2019-05-16T05:55:19.987Z,12.40
2019-05-16T05:57:46.852Z,12.40
2019-05-16T06:00:13.922Z,12.40
2019-05-16T06:02:40.717Z,12.60
2019-05-16T06:05:07.675Z,12.60
2019-05-16T06:07:34.315Z,12.70
2019-05-16T06:10:01.317Z,12.80
2019-05-16T06:12:30.093Z,12.90
2019-05-16T06:14:56.501Z,13.10
2019-05-16T06:17:23.668Z,13.10
2019-05-16T06:19:50.662Z,13.30
2019-05-16T06:22:17.619Z,13.40
2019-05-16T06:24:46.893Z,13.50
2019-05-16T06:27:13.648Z,13.60
2019-05-16T06:29:40.379Z,13.60
2019-05-16T06:32:07.061Z,13.60
2019-05-16T06:34:33.831Z,13.60
2019-05-16T06:37:00.681Z,13.80
2019-05-16T06:39:41.223Z,13.80
2019-05-16T06:41:57.453Z,13.80
2019-05-16T06:44:25.881Z,13.80
2019-05-16T06:47:08.795Z,13.90
2019-05-16T06:49:22.143Z,14.00
2019-05-16T06:51:48.760Z,14.10
2019-05-16T06:54:15.679Z,14.20
2019-05-16T06:56:42.518Z,14.30
2019-05-16T06:59:10.365Z,14.40
2019-05-16T07:01:37.250Z,14.40
2019-05-16T07:04:05.098Z,14.60
2019-05-16T07:06:51.829Z,14.90
2019-05-16T07:09:01.421Z,14.90
2019-05-16T07:11:30.646Z,14.80
2019-05-16T07:13:57.861Z,14.70
2019-05-16T07:16:24.860Z,14.60
2019-05-16T07:18:51.595Z,14.80
2019-05-16T07:21:20.167Z,14.90
2019-05-16T07:23:51.322Z,15.00
2019-05-16T07:26:20.670Z,15.10
2019-05-16T07:28:47.798Z,15.20
2019-05-16T07:31:18.757Z,15.20
2019-05-16T07:33:43.932Z,15.40
2019-05-16T07:36:10.794Z,15.30
2019-05-16T07:38:41.162Z,15.30
2019-05-16T07:41:16.711Z,15.50
2019-05-16T07:43:44.173Z,16.00
2019-05-16T07:46:11.361Z,15.90
2019-05-16T07:48:40.324Z,15.80
2019-05-16T07:51:10.112Z,16.00
2019-05-16T07:53:40.298Z,15.90
2019-05-16T07:56:07.569Z,16.00
2019-05-16T07:58:34.852Z,16.00
2019-05-16T08:01:07.608Z,16.10
2019-05-16T08:03:32.766Z,16.10
2019-05-16T08:06:01.799Z,16.20
2019-05-16T08:08:31.307Z,16.40
2019-05-16T08:11:01.491Z,16.30
2019-05-16T08:13:27.440Z,16.40
2019-05-16T08:15:54.616Z,16.60
2019-05-16T08:18:21.851Z,16.70
2019-05-16T08:20:52.387Z,16.70
2019-05-16T08:23:21.890Z,16.80
2019-05-16T08:25:50.458Z,16.90
2019-05-16T08:28:16.226Z,17.00
2019-05-16T08:30:43.014Z,17.10
2019-05-16T08:33:13.483Z,17.20
2019-05-16T08:35:41.343Z,17.40
2019-05-16T08:38:07.554Z,18.10
2019-05-16T08:40:59.723Z,18.80
2019-05-16T08:43:03.436Z,19.40
2019-05-16T08:45:31.503Z,19.70
2019-05-16T08:48:00.224Z,19.80
2019-05-16T08:50:27.160Z,20.00
2019-05-16T08:52:53.791Z,20.00
2019-05-16T08:55:21.795Z,20.40
2019-05-16T08:57:52.893Z,20.60
2019-05-16T09:00:21.521Z,20.70
2019-05-16T09:02:46.274Z,20.70
2019-05-16T09:05:14.123Z,21.00
2019-05-16T09:07:40.659Z,21.30
2019-05-16T09:10:35.496Z,21.40
2019-05-16T09:12:37.135Z,21.40
2019-05-16T09:15:07.387Z,21.50
2019-05-16T09:17:33.296Z,21.60
2019-05-16T09:19:59.863Z,21.80
2019-05-16T09:22:28.225Z,21.90
2019-05-16T09:24:57.415Z,22.00
2019-05-16T09:27:23.179Z,22.10
2019-05-16T09:29:49.619Z,22.10
2019-05-16T09:32:20.551Z,22.10
2019-05-16T09:34:47.600Z,22.10
2019-05-16T09:37:13.076Z,22.00
2019-05-16T09:39:39.673Z,21.80
2019-05-16T09:42:08.804Z,22.00
2019-05-16T09:44:37.026Z,22.00
2019-05-16T09:47:03.220Z,22.20
2019-05-16T09:49:29.905Z,22.50
2019-05-16T09:51:56.900Z,22.70
2019-05-16T09:54:23.521Z,22.70
2019-05-16T09:56:50.077Z,22.80
2019-05-16T09:59:17.308Z,22.90
2019-05-16T10:01:44.278Z,23.20
2019-05-16T10:04:11.134Z,23.50
2019-05-16T10:06:37.909Z,23.50
2019-05-16T10:09:06.477Z,23.50
2019-05-16T10:11:33.108Z,23.50
2019-05-16T10:13:59.914Z,23.70
2019-05-16T10:16:27.528Z,23.90
2019-05-16T10:18:56.808Z,23.90
2019-05-16T10:21:23.741Z,23.80
2019-05-16T10:23:50.659Z,24.00
2019-05-16T10:26:19.484Z,24.00
2019-05-16T10:28:46.947Z,24.00
2019-05-16T10:31:17.583Z,24.00
2019-05-16T10:33:43.372Z,23.70
2019-05-16T10:36:11.963Z,24.00
2019-05-16T10:38:38.888Z,24.30
2019-05-16T10:41:07.301Z,24.70
2019-05-16T10:43:33.805Z,24.80
2019-05-16T10:46:02.058Z,24.60
2019-05-16T10:48:28.750Z,24.50
2019-05-16T10:50:57.407Z,24.60
2019-05-16T10:53:42.739Z,24.50
2019-05-16T10:55:51.946Z,24.30
2019-05-16T10:59:03.818Z,24.00
2019-05-16T11:01:22.152Z,23.40
2019-05-16T11:03:35.248Z,23.90
2019-05-16T11:06:05.709Z,23.90
2019-05-16T11:08:30.093Z,23.80
2019-05-16T11:10:57.199Z,23.90
2019-05-16T11:13:23.743Z,23.90
2019-05-16T11:15:50.498Z,23.90
2019-05-16T11:18:19.736Z,24.20
2019-05-16T11:20:49.210Z,24.60
2019-05-16T11:23:14.963Z,24.60
2019-05-16T11:25:41.375Z,24.80
2019-05-16T11:28:07.891Z,24.90
2019-05-16T11:30:37.288Z,24.40
2019-05-16T11:33:03.106Z,24.40
2019-05-16T11:35:29.879Z,24.70
2019-05-16T11:37:57.139Z,24.60
2019-05-16T11:40:24.277Z,24.10
2019-05-16T11:43:05.488Z,23.70
2019-05-16T11:45:19.909Z,23.70
2019-05-16T11:47:47.355Z,23.90
2019-05-16T11:50:17.312Z,24.10
2019-05-16T11:52:42.556Z,23.90
2019-05-16T11:58:17.882Z,23.20
2019-05-16T12:00:43.946Z,23.20
2019-05-16T12:03:10.652Z,23.30
2019-05-16T12:05:39.234Z,23.20
2019-05-16T12:08:07.611Z,22.60
2019-05-16T12:10:36.346Z,22.40
2019-05-16T12:13:03.222Z,22.50
2019-05-16T12:15:30.175Z,22.30
2019-05-16T12:18:01.884Z,22.10
2019-05-16T12:20:27.351Z,22.00
2019-05-16T12:22:53.933Z,22.10
2019-05-16T12:25:21.977Z,22.30
2019-05-16T12:27:48.657Z,22.10
2019-05-16T12:30:17.717Z,22.10
2019-05-16T12:32:44.096Z,22.30
2019-05-16T12:35:10.863Z,22.70
2019-05-16T12:37:37.602Z,23.10
2019-05-16T12:40:07.888Z,23.30
2019-05-16T12:42:36.522Z,22.80
2019-05-16T12:45:07.335Z,22.90
2019-05-16T12:47:34.073Z,22.70
2019-05-16T12:50:00.870Z,22.40
2019-05-16T12:52:27.622Z,22.60
2019-05-16T12:54:56.838Z,22.20
2019-05-16T12:57:27.947Z,22.60
2019-05-16T12:59:52.618Z,22.20
2019-05-16T13:02:21.742Z,22.30
2019-05-16T13:04:48.781Z,21.80
2019-05-16T13:07:17.320Z,21.80
2019-05-16T13:09:46.341Z,21.90
2019-05-16T13:12:12.294Z,21.70
2019-05-16T13:14:40.411Z,21.90
2019-05-16T13:17:07.469Z,21.90
2019-05-16T13:19:34.885Z,21.90
2019-05-16T13:22:02.998Z,21.70
2019-05-16T13:24:29.937Z,21.90
2019-05-16T13:26:57.122Z,21.50
2019-05-16T13:29:23.886Z,21.70
2019-05-16T13:31:50.617Z,21.70
2019-05-16T13:34:17.938Z,21.60
2019-05-16T13:36:47.258Z,21.50
2019-05-16T13:39:13.261Z,21.40
2019-05-16T13:41:40.151Z,21.30
2019-05-16T13:44:17.652Z,21.20
2019-05-16T13:46:37.898Z,21.00
2019-05-16T13:49:06.731Z,21.00
2019-05-16T13:51:33.142Z,21.30
2019-05-16T13:53:59.794Z,21.40
2019-05-16T13:56:27.327Z,21.60
2019-05-16T13:58:56.868Z,21.50
2019-05-16T14:01:22.507Z,21.40
2019-05-16T14:03:49.528Z,21.30
2019-05-16T14:06:18.304Z,21.10
2019-05-16T14:08:46.809Z,20.80
2019-05-16T14:11:14.024Z,20.80
2019-05-16T14:13:40.765Z,21.00
2019-05-16T14:16:07.508Z,21.30
2019-05-16T14:18:34.780Z,21.50
2019-05-16T14:21:01.350Z,21.40
2019-05-16T14:23:29.234Z,21.70
2019-05-16T14:25:57.823Z,21.70
2019-05-16T14:28:24.128Z,21.70
2019-05-16T14:30:50.705Z,21.60
2019-05-16T14:33:17.366Z,21.60
2019-05-16T14:35:44.106Z,21.40
2019-05-16T14:38:10.994Z,21.30
2019-05-16T14:40:37.682Z,21.00
2019-05-16T14:43:07.801Z,20.60
2019-05-16T14:45:34.299Z,20.80
2019-05-16T14:48:01.420Z,20.60
2019-05-16T14:50:28.317Z,20.60
2019-05-16T14:52:56.675Z,20.50
2019-05-16T14:55:27.397Z,20.50
2019-05-16T14:57:53.676Z,20.20
2019-05-16T15:00:20.741Z,20.40
2019-05-16T15:02:48.155Z,20.30
2019-05-16T15:05:17.110Z,20.30
2019-05-16T15:07:43.926Z,20.40
2019-05-16T15:10:10.867Z,20.50
2019-05-16T15:12:37.889Z,20.50
2019-05-16T15:15:20.294Z,20.50
2019-05-16T15:17:37.537Z,20.50
2019-05-16T15:20:06.742Z,20.60
2019-05-16T15:22:33.551Z,21.00
2019-05-16T15:25:00.277Z,20.90
2019-05-16T15:27:26.972Z,20.60
2019-05-16T15:29:54.009Z,20.60
2019-05-16T15:32:20.774Z,20.60
2019-05-16T15:34:47.902Z,20.50
2019-05-16T15:37:17.134Z,20.40
2019-05-16T15:39:47.359Z,20.20
2019-05-16T15:42:12.535Z,19.90
2019-05-16T15:44:39.127Z,20.00
2019-05-16T15:47:08.125Z,20.10
2019-05-16T15:49:37.561Z,20.10
2019-05-16T15:52:03.422Z,20.10
2019-05-16T15:54:31.357Z,19.90
2019-05-16T15:56:58.184Z,20.00
2019-05-16T15:59:27.177Z,20.20
2019-05-16T16:01:53.906Z,20.20
2019-05-16T16:04:20.979Z,19.90
2019-05-16T16:06:47.919Z,19.80
2019-05-16T16:09:17.240Z,20.10
2019-05-16T16:11:43.953Z,20.00
2019-05-16T16:14:11.213Z,20.00
2019-05-16T16:16:38.325Z,19.80
2019-05-16T16:19:06.613Z,20.00
2019-05-16T16:21:33.570Z,20.00
2019-05-16T16:24:00.517Z,20.10
2019-05-16T16:26:27.545Z,20.10
2019-05-16T16:28:55.569Z,20.20
2019-05-16T16:31:22.333Z,20.10
2019-05-16T16:33:49.382Z,20.30
2019-05-16T16:36:17.124Z,20.00
2019-05-16T16:38:44.567Z,19.90
2019-05-16T16:41:11.614Z,20.00
2019-05-16T16:43:38.736Z,20.00
2019-05-16T16:46:10.241Z,19.90
2019-05-16T16:48:34.699Z,19.90
2019-05-16T16:51:01.982Z,19.90
2019-05-16T16:53:28.945Z,19.70
2019-05-16T16:55:56.897Z,19.80
2019-05-16T16:58:26.673Z,19.80
2019-05-16T17:00:53.065Z,19.70
2019-05-16T17:03:20.244Z,19.90
2019-05-16T17:05:47.014Z,20.00
2019-05-16T17:08:16.571Z,20.00
2019-05-16T17:10:42.726Z,19.90
2019-05-16T17:13:09.766Z,19.90
2019-05-16T17:15:38.160Z,20.00
2019-05-16T17:18:06.948Z,19.80
2019-05-16T17:20:37.295Z,19.80
2019-05-16T17:23:06.601Z,19.70
2019-05-16T17:25:33.717Z,19.80
2019-05-16T17:28:02.221Z,19.60
2019-05-16T17:30:29.477Z,19.50
2019-05-16T17:32:56.691Z,19.50
2019-05-16T17:35:23.608Z,19.70
2019-05-16T17:37:50.694Z,19.60
2019-05-16T17:40:18.340Z,19.70
2019-05-16T17:42:47.720Z,19.60
2019-05-16T17:45:14.679Z,19.50
2019-05-16T17:47:41.814Z,19.30
2019-05-16T17:50:10.025Z,19.10
2019-05-16T17:52:37.067Z,19.10
2019-05-16T17:55:07.250Z,19.20
2019-05-16T17:57:36.944Z,19.30
2019-05-16T18:00:07.103Z,19.30
2019-05-16T18:02:37.222Z,19.30
2019-05-16T18:05:08.703Z,19.20
2019-05-16T18:07:36.807Z,19.10
2019-05-16T18:10:07.423Z,18.90
2019-05-16T18:12:36.994Z,18.90
2019-05-16T18:15:08.415Z,19.00
2019-05-16T18:17:36.132Z,19.20
2019-05-16T18:20:06.482Z,19.10
2019-05-16T18:22:33.478Z,18.90
2019-05-16T18:25:00.436Z,18.90
2019-05-16T18:27:27.430Z,19.00
2019-05-16T18:29:54.474Z,19.10
2019-05-16T18:32:21.499Z,19.20
2019-05-16T18:34:48.636Z,18.90
2019-05-16T18:37:17.317Z,18.80
2019-05-16T18:39:44.356Z,18.80
2019-05-16T18:42:11.373Z,18.90
2019-05-16T18:44:38.354Z,18.80
2019-05-16T18:47:10.474Z,18.80
2019-05-16T18:49:36.559Z,18.90
2019-05-16T18:52:03.142Z,19.10
2019-05-16T18:54:29.922Z,19.00
2019-05-16T18:56:57.799Z,18.90
2019-05-16T18:59:26.201Z,18.90
2019-05-16T19:01:53.373Z,18.70
2019-05-16T19:04:20.528Z,18.60
2019-05-16T19:06:47.312Z,18.80
2019-05-16T19:09:16.488Z,18.80
2019-05-16T19:11:43.608Z,18.70
2019-05-16T19:14:10.603Z,18.60
2019-05-16T19:16:37.954Z,18.70
2019-05-16T19:19:07.402Z,18.50
2019-05-16T19:21:36.738Z,18.60
2019-05-16T19:24:03.265Z,18.40
2019-05-16T19:26:30.453Z,18.60
2019-05-16T19:28:57.391Z,18.60
2019-05-16T19:31:24.941Z,18.40
2019-05-16T19:33:51.511Z,18.60
2019-05-16T19:36:19.459Z,18.70
2019-05-16T19:38:46.616Z,18.90
2019-05-16T19:41:13.970Z,19.00
2019-05-16T19:43:40.703Z,19.00
2019-05-16T19:46:07.300Z,19.00
2019-05-16T19:48:33.781Z,19.10
2019-05-16T19:51:01.620Z,19.00
2019-05-16T19:53:28.033Z,19.00
2019-05-16T19:55:56.549Z,18.80
2019-05-16T19:58:23.321Z,18.80
2019-05-16T20:00:49.918Z,18.60
2019-05-16T20:03:16.804Z,18.50
2019-05-16T20:05:47.437Z,18.50
2019-05-16T20:08:13.581Z,18.70
2019-05-16T20:10:40.460Z,18.70
2019-05-16T20:13:07.773Z,18.60
2019-05-16T20:15:36.671Z,18.70
2019-05-16T20:18:09.251Z,18.80
2019-05-16T20:20:37.099Z,18.70
2019-05-16T20:23:05.133Z,18.60
2019-05-16T20:25:36.260Z,18.30
2019-05-16T20:28:09.867Z,18.10
2019-05-16T20:30:37.252Z,18.10
2019-05-16T20:33:08.845Z,18.10
2019-05-16T20:35:37.487Z,18.20
2019-05-16T20:38:06.639Z,18.70
2019-05-16T20:40:32.941Z,18.50
2019-05-16T20:42:59.978Z,18.50
2019-05-16T20:45:27.150Z,18.40
2019-05-16T20:48:07.237Z,18.50
2019-05-16T20:50:22.679Z,18.40
2019-05-16T20:52:52.612Z,18.50
2019-05-16T20:55:19.988Z,18.50
2019-05-16T20:57:48.523Z,18.10
2019-05-16T21:00:17.505Z,17.80
2019-05-16T21:02:44.084Z,17.80
2019-05-16T21:05:11.692Z,17.70
2019-05-16T21:07:38.619Z,17.80
2019-05-16T21:10:07.925Z,17.80
2019-05-16T21:12:37.288Z,17.80
2019-05-16T21:15:06.386Z,17.90
2019-05-16T21:17:33.776Z,18.10
2019-05-16T21:20:00.501Z,18.10
2019-05-16T21:22:27.487Z,18.10
2019-05-16T21:24:54.550Z,17.90
2019-05-16T21:27:21.678Z,17.60
2019-05-16T21:29:48.760Z,17.80
2019-05-16T21:32:16.235Z,17.80
2019-05-16T21:34:43.511Z,17.70
2019-05-16T21:37:17.083Z,17.60
2019-05-16T21:39:41.620Z,17.40
2019-05-16T21:42:08.716Z,17.50
2019-05-16T21:44:37.406Z,17.30
2019-05-16T21:47:04.503Z,16.90
2019-05-16T21:49:32.047Z,16.90
2019-05-16T21:51:59.141Z,16.90
2019-05-16T21:54:28.672Z,16.90
2019-05-16T21:56:57.034Z,16.90
2019-05-16T21:59:23.890Z,16.80
2019-05-16T22:01:51.382Z,16.90
2019-05-16T22:04:18.381Z,16.80
2019-05-16T22:06:47.319Z,16.60
2019-05-16T22:09:14.068Z,16.50
2019-05-16T22:11:41.728Z,16.40
2019-05-16T22:14:10.890Z,16.60
2019-05-16T22:16:39.345Z,16.70
2019-05-16T22:19:07.068Z,16.70
2019-05-16T22:21:34.481Z,16.90
2019-05-16T22:24:01.917Z,16.80
2019-05-16T22:26:30.031Z,16.60
2019-05-16T22:28:57.443Z,16.60
2019-05-16T22:31:26.827Z,16.60
2019-05-16T22:33:53.167Z,16.40
2019-05-16T22:36:19.999Z,16.30
2019-05-16T22:38:47.509Z,16.20
2019-05-16T22:41:14.329Z,16.10
2019-05-16T22:43:41.100Z,16.00
2019-05-16T22:46:09.982Z,16.10
2019-05-16T22:48:37.193Z,16.00
2019-05-16T22:51:04.208Z,16.20
2019-05-16T22:53:31.097Z,16.30
2019-05-16T22:55:57.969Z,16.40
2019-05-16T22:58:26.775Z,16.20
2019-05-16T23:00:53.555Z,16.30
2019-05-16T23:03:20.880Z,16.20
2019-05-16T23:05:48.206Z,16.10
2019-05-16T23:08:16.452Z,16.10
2019-05-16T23:10:45.715Z,15.90
2019-05-16T23:13:12.599Z,16.00
2019-05-16T23:15:39.401Z,15.90
2019-05-16T23:18:06.985Z,15.80
2019-05-16T23:20:36.739Z,16.00
2019-05-16T23:23:03.443Z,16.10
2019-05-16T23:25:30.525Z,16.30
2019-05-16T23:27:57.504Z,16.50
2019-05-16T23:30:24.512Z,16.50
2019-05-16T23:32:51.382Z,16.20
2019-05-16T23:35:18.438Z,16.20
2019-05-16T23:37:46.426Z,16.20
2019-05-16T23:40:14.157Z,16.30
2019-05-16T23:42:41.296Z,16.20
2019-05-16T23:45:09.145Z,16.40
2019-05-16T23:47:36.571Z,16.10
2019-05-16T23:50:07.340Z,16.00
2019-05-16T23:52:36.834Z,15.80
2019-05-16T23:55:08.285Z,15.90
2019-05-16T23:57:37.310Z,15.90
